createdAt,value
2022-08-11T00:01:25.705Z,16.80
2022-08-11T00:04:01.456Z,16.80
2022-08-11T00:06:37.909Z,16.70
2022-08-11T00:09:08.194Z,16.80
2022-08-11T00:11:47.071Z,16.80
2022-08-11T00:14:24.691Z,16.80
2022-08-11T00:17:10.941Z,16.80
2022-08-11T00:20:13.794Z,16.80
2022-08-11T00:22:30.531Z,16.70
2022-08-11T00:25:02.326Z,16.60
2022-08-11T00:27:39.778Z,16.50
2022-08-11T00:30:11.851Z,16.30
2022-08-11T00:32:41.661Z,16.30
2022-08-11T00:35:51.301Z,16.20
2022-08-11T00:38:01.182Z,16.20
2022-08-11T00:40:39.925Z,16.30
2022-08-11T00:43:30.721Z,16.30
2022-08-11T00:46:21.867Z,16.30
2022-08-11T00:49:19.689Z,16.20
2022-08-11T00:52:09.702Z,16.20
2022-08-11T00:54:39.609Z,16.20
2022-08-11T00:57:36.888Z,16.20
2022-08-11T01:00:16.991Z,15.90
2022-08-11T01:03:02.608Z,15.80
2022-08-11T01:05:55.487Z,15.80
2022-08-11T01:08:54.470Z,15.60
2022-08-11T01:11:58.379Z,15.60
2022-08-11T01:15:15.193Z,15.50
2022-08-11T01:18:31.295Z,15.50
2022-08-11T01:21:18.835Z,15.40
2022-08-11T01:23:55.133Z,15.20
2022-08-11T01:26:40.642Z,15.10
2022-08-11T01:29:17.629Z,15.10
2022-08-11T01:32:11.561Z,15.30
2022-08-11T01:34:57.493Z,15.30
2022-08-11T01:37:52.334Z,15.50
2022-08-11T01:40:43.441Z,15.50
2022-08-11T01:43:28.915Z,15.40
2022-08-11T01:46:19.913Z,15.30
2022-08-11T01:48:46.765Z,15.20
2022-08-11T01:51:27.165Z,15.20
2022-08-11T01:54:12.602Z,15.10
2022-08-11T01:57:20.826Z,15.00
2022-08-11T02:00:00.338Z,14.90
2022-08-11T02:02:58.378Z,14.90
2022-08-11T02:06:02.871Z,15.00
2022-08-11T02:09:15.978Z,14.90
2022-08-11T02:11:50.517Z,14.90
2022-08-11T02:14:41.462Z,14.70
2022-08-11T02:17:54.894Z,14.60
2022-08-11T02:20:51.591Z,14.70
2022-08-11T02:24:05.183Z,14.80
2022-08-11T02:26:50.658Z,14.80
2022-08-11T02:29:37.975Z,14.70
2022-08-11T02:32:44.448Z,14.70
2022-08-11T02:35:28.087Z,14.60
2022-08-11T02:38:08.963Z,14.70
2022-08-11T02:40:54.757Z,14.60
2022-08-11T02:43:40.909Z,14.80
2022-08-11T02:46:50.274Z,14.70
2022-08-11T02:50:00.072Z,14.80
2022-08-11T02:53:06.798Z,14.90
2022-08-11T02:55:58.341Z,14.80
2022-08-11T02:59:11.423Z,14.80
2022-08-11T03:02:00.621Z,14.80
2022-08-11T03:04:55.536Z,14.90
2022-08-11T03:07:36.387Z,14.90
2022-08-11T03:10:23.557Z,14.90
2022-08-11T03:13:21.172Z,14.90
2022-08-11T03:16:34.242Z,14.80
2022-08-11T03:19:24.343Z,14.70
2022-08-11T03:22:06.265Z,14.70
2022-08-11T03:24:56.151Z,14.60
2022-08-11T03:28:02.573Z,14.50
2022-08-11T03:30:47.565Z,14.40
2022-08-11T03:33:51.119Z,14.50
2022-08-11T03:37:14.832Z,14.50
2022-08-11T03:40:09.037Z,14.30
2022-08-11T03:42:54.274Z,14.20
2022-08-11T03:45:21.218Z,14.10
2022-08-11T03:48:09.327Z,14.20
2022-08-11T03:51:20.751Z,14.10
2022-08-11T03:53:56.866Z,14.10
2022-08-11T03:56:45.135Z,14.10
2022-08-11T03:59:50.109Z,14.10
2022-08-11T04:02:32.469Z,14.10
2022-08-11T04:05:39.422Z,14.10
2022-08-11T04:08:50.541Z,14.10
2022-08-11T04:11:29.550Z,13.90
2022-08-11T04:14:59.598Z,13.90
2022-08-11T04:17:41.352Z,13.60
2022-08-11T04:20:31.193Z,13.60
2022-08-11T04:23:04.248Z,13.30
2022-08-11T04:25:33.885Z,13.20
2022-08-11T04:28:49.951Z,13.20
2022-08-11T04:31:44.341Z,13.30
2022-08-11T04:34:57.961Z,13.40
2022-08-11T04:37:43.479Z,13.40
2022-08-11T04:40:55.103Z,13.30
2022-08-11T04:44:07.363Z,13.30
2022-08-11T04:47:12.067Z,13.30
2022-08-11T04:50:28.854Z,13.30
2022-08-11T04:53:56.231Z,13.30
2022-08-11T04:57:04.677Z,13.20
2022-08-11T05:00:14.748Z,13.20
2022-08-11T05:03:17.850Z,13.20
2022-08-11T05:06:22.843Z,13.30
2022-08-11T05:09:13.082Z,13.10
2022-08-11T05:11:45.869Z,13.10
2022-08-11T05:14:31.555Z,13.00
2022-08-11T05:17:22.614Z,13.00
2022-08-11T05:20:08.282Z,13.10
2022-08-11T05:22:55.295Z,13.10
2022-08-11T05:26:45.427Z,13.00
2022-08-11T05:29:19.304Z,13.10
2022-08-11T05:32:14.682Z,13.20
2022-08-11T05:34:54.233Z,13.40
2022-08-11T05:37:34.635Z,13.20
2022-08-11T05:40:31.858Z,13.10
2022-08-11T05:43:23.967Z,13.00
2022-08-11T05:46:21.513Z,12.90
2022-08-11T05:49:08.323Z,12.70
2022-08-11T05:52:05.387Z,12.80
2022-08-11T05:55:06.169Z,12.80
2022-08-11T05:57:48.476Z,13.00
2022-08-11T06:00:19.617Z,13.20
2022-08-11T06:02:51.237Z,13.30
2022-08-11T06:05:19.674Z,13.30
2022-08-11T06:07:54.004Z,13.30
2022-08-11T06:10:35.656Z,13.40
2022-08-11T06:13:03.579Z,13.60
2022-08-11T06:15:32.791Z,13.70
2022-08-11T06:18:01.446Z,13.80
2022-08-11T06:20:36.903Z,14.00
2022-08-11T06:23:07.440Z,14.20
2022-08-11T06:25:37.256Z,14.30
2022-08-11T06:28:08.379Z,14.50
2022-08-11T06:30:45.079Z,14.60
2022-08-11T06:33:17.179Z,14.80
2022-08-11T06:36:07.628Z,15.00
2022-08-11T06:39:01.423Z,15.10
2022-08-11T06:41:38.451Z,15.30
2022-08-11T06:44:14.587Z,15.50
2022-08-11T06:46:48.051Z,15.50
2022-08-11T06:49:36.447Z,15.70
2022-08-11T06:52:34.903Z,15.90
2022-08-11T06:55:54.815Z,16.10
2022-08-11T06:58:15.138Z,16.30
2022-08-11T07:00:42.503Z,16.40
2022-08-11T07:03:16.683Z,16.60
2022-08-11T07:05:58.720Z,16.80
2022-08-11T07:09:10.249Z,17.00
2022-08-11T07:12:17.358Z,17.20
2022-08-11T07:15:10.550Z,17.40
2022-08-11T07:17:49.890Z,17.70
2022-08-11T07:20:36.698Z,18.00
2022-08-11T07:23:25.672Z,18.40
2022-08-11T07:26:13.087Z,18.60
2022-08-11T07:29:01.015Z,18.90
2022-08-11T07:31:37.369Z,19.10
2022-08-11T07:34:28.160Z,19.30
2022-08-11T07:36:58.736Z,19.50
2022-08-11T07:39:33.541Z,19.80
2022-08-11T07:42:06.808Z,20.10
2022-08-11T07:44:55.146Z,20.30
2022-08-11T07:47:42.484Z,20.60
2022-08-11T07:50:29.336Z,21.00
2022-08-11T07:52:59.695Z,21.30
2022-08-11T07:55:51.035Z,21.50
2022-08-11T07:58:52.276Z,21.60
2022-08-11T08:01:42.129Z,21.80
2022-08-11T08:04:30.243Z,22.10
2022-08-11T08:07:16.906Z,22.30
2022-08-11T08:10:03.244Z,22.40
2022-08-11T08:12:50.538Z,22.70
2022-08-11T08:15:39.152Z,22.90
2022-08-11T08:18:20.585Z,23.20
2022-08-11T08:20:55.026Z,23.20
2022-08-11T08:23:35.417Z,23.40
2022-08-11T08:26:05.855Z,23.50
2022-08-11T08:28:46.652Z,23.80
2022-08-11T08:31:14.816Z,23.90
2022-08-11T08:33:43.019Z,24.10
2022-08-11T08:36:15.133Z,24.20
2022-08-11T08:38:50.544Z,24.50
2022-08-11T08:41:25.103Z,24.70
2022-08-11T08:43:59.851Z,25.10
2022-08-11T08:46:46.239Z,25.10
2022-08-11T08:49:24.594Z,25.30
2022-08-11T08:52:19.168Z,25.30
2022-08-11T08:54:46.031Z,25.50
2022-08-11T08:57:14.151Z,25.70
2022-08-11T08:59:48.822Z,25.50
2022-08-11T09:02:33.593Z,25.70
2022-08-11T09:05:04.034Z,26.10
2022-08-11T09:07:38.468Z,26.30
2022-08-11T09:10:11.267Z,26.60
2022-08-11T09:12:42.850Z,27.00
2022-08-11T09:15:12.557Z,27.10
2022-08-11T09:17:41.710Z,27.00
2022-08-11T09:20:10.140Z,26.90
2022-08-11T09:23:41.401Z,27.00
2022-08-11T09:26:04.291Z,27.30
2022-08-11T09:28:31.713Z,27.80
2022-08-11T09:31:01.240Z,27.80
2022-08-11T09:33:30.527Z,28.00
2022-08-11T09:35:58.474Z,28.10
2022-08-11T09:38:49.594Z,28.30
2022-08-11T09:41:17.162Z,28.50
2022-08-11T09:44:04.742Z,28.60
2022-08-11T09:46:33.431Z,28.90
2022-08-11T09:49:02.294Z,29.10
2022-08-11T09:51:32.446Z,29.50
2022-08-11T09:54:07.453Z,29.60
2022-08-11T09:56:53.352Z,29.80
2022-08-11T09:59:22.761Z,29.80
2022-08-11T10:01:59.400Z,29.70
2022-08-11T10:04:48.534Z,30.00
2022-08-11T10:07:16.870Z,30.00
2022-08-11T10:09:43.733Z,29.90
2022-08-11T10:12:14.660Z,30.10
2022-08-11T10:15:03.916Z,30.30
2022-08-11T10:17:39.587Z,30.30
2022-08-11T10:20:08.963Z,30.40
2022-08-11T10:22:54.724Z,30.40
2022-08-11T10:25:40.873Z,30.60
2022-08-11T10:28:32.843Z,31.00
2022-08-11T10:31:16.667Z,31.00
2022-08-11T10:34:01.629Z,31.10
2022-08-11T10:36:34.809Z,31.50
2022-08-11T10:39:04.571Z,31.60
2022-08-11T10:42:06.168Z,31.60
2022-08-11T10:44:43.365Z,31.60
2022-08-11T10:47:31.226Z,31.60
2022-08-11T10:50:17.524Z,31.80
2022-08-11T10:53:06.663Z,32.00
2022-08-11T10:55:54.159Z,32.30
2022-08-11T10:58:45.240Z,32.30
2022-08-11T11:01:13.269Z,32.10
2022-08-11T11:03:41.148Z,32.10
2022-08-11T11:06:27.607Z,32.30
2022-08-11T11:09:25.742Z,32.20
2022-08-11T11:12:17.987Z,32.60
2022-08-11T11:15:07.007Z,32.70
2022-08-11T11:17:56.214Z,32.90
2022-08-11T11:20:47.491Z,33.00
2022-08-11T11:23:47.565Z,33.40
2022-08-11T11:26:56.363Z,33.70
2022-08-11T11:29:35.250Z,33.80
2022-08-11T11:32:26.503Z,33.90
2022-08-11T11:34:58.322Z,33.70
2022-08-11T11:37:26.128Z,33.40
2022-08-11T11:39:55.291Z,33.60
2022-08-11T11:42:23.057Z,33.80
2022-08-11T11:44:54.158Z,33.80
2022-08-11T11:47:23.840Z,33.70
2022-08-11T11:49:51.408Z,33.70
2022-08-11T11:52:21.154Z,33.90
2022-08-11T11:54:50.904Z,34.00
2022-08-11T11:57:39.112Z,33.90
2022-08-11T12:00:33.137Z,33.70
2022-08-11T12:03:03.739Z,33.60
2022-08-11T12:05:34.016Z,33.80
2022-08-11T12:08:18.762Z,33.80
2022-08-11T12:10:48.686Z,33.80
2022-08-11T12:13:37.038Z,34.10
2022-08-11T12:16:33.759Z,34.40
2022-08-11T12:18:58.252Z,34.60
2022-08-11T12:21:27.648Z,34.60
2022-08-11T12:24:19.567Z,34.60
2022-08-11T12:27:14.998Z,34.70
2022-08-11T12:29:41.241Z,34.60
2022-08-11T12:32:11.748Z,34.90
2022-08-11T12:34:38.989Z,34.80
2022-08-11T12:37:11.031Z,34.80
2022-08-11T12:40:05.765Z,34.70
2022-08-11T12:43:08.255Z,34.80
2022-08-11T12:45:48.866Z,34.90
2022-08-11T12:48:59.111Z,35.00
2022-08-11T12:52:10.974Z,34.80
2022-08-11T12:55:13.159Z,34.80
2022-08-11T12:58:05.589Z,35.30
2022-08-11T13:00:52.269Z,35.40
2022-08-11T13:03:40.262Z,35.20
2022-08-11T13:06:08.404Z,35.10
2022-08-11T13:08:39.263Z,35.00
2022-08-11T13:11:55.682Z,34.90
2022-08-11T13:14:15.301Z,34.70
2022-08-11T13:17:03.777Z,34.60
2022-08-11T13:19:32.208Z,34.60
2022-08-11T13:22:02.450Z,34.80
2022-08-11T13:24:31.093Z,34.90
2022-08-11T13:26:58.897Z,34.60
2022-08-11T13:29:28.037Z,34.60
2022-08-11T13:31:58.328Z,34.70
2022-08-11T13:34:27.423Z,34.70
2022-08-11T13:37:00.878Z,34.60
2022-08-11T13:39:30.343Z,34.00
2022-08-11T13:41:59.663Z,33.70
2022-08-11T13:44:32.032Z,33.80
2022-08-11T13:47:04.641Z,33.50
2022-08-11T13:49:35.036Z,33.20
2022-08-11T13:52:04.047Z,33.10
2022-08-11T13:54:33.847Z,33.20
2022-08-11T13:57:08.192Z,33.20
2022-08-11T13:59:45.288Z,33.00
2022-08-11T14:02:28.435Z,32.80
2022-08-11T14:04:59.102Z,32.50
2022-08-11T14:07:36.902Z,32.30
2022-08-11T14:10:06.727Z,32.50
2022-08-11T14:12:55.655Z,32.80
2022-08-11T14:15:27.242Z,32.70
2022-08-11T14:18:17.588Z,32.60
2022-08-11T14:21:05.723Z,32.60
2022-08-11T14:23:45.106Z,32.80
2022-08-11T14:26:28.280Z,32.60
2022-08-11T14:29:14.581Z,32.90
2022-08-11T14:31:49.091Z,32.80
2022-08-11T14:34:21.304Z,33.00
2022-08-11T14:36:54.454Z,32.90
2022-08-11T14:39:36.017Z,32.90
2022-08-11T14:42:24.832Z,32.90
2022-08-11T14:45:19.748Z,32.80
2022-08-11T14:47:53.301Z,32.60
2022-08-11T14:50:26.990Z,32.10
2022-08-11T14:52:58.085Z,32.00
2022-08-11T14:55:46.908Z,32.20
2022-08-11T14:58:18.041Z,32.40
2022-08-11T15:00:45.624Z,32.30
2022-08-11T15:03:15.417Z,31.90
2022-08-11T15:05:56.377Z,31.70
2022-08-11T15:08:56.944Z,32.00
2022-08-11T15:11:49.924Z,31.90
2022-08-11T15:14:37.781Z,31.70
2022-08-11T15:17:11.466Z,32.00
2022-08-11T15:20:04.178Z,32.10
2022-08-11T15:22:50.093Z,31.90
2022-08-11T15:25:17.289Z,31.80
2022-08-11T15:28:06.246Z,31.80
2022-08-11T15:30:52.872Z,31.70
2022-08-11T15:33:40.421Z,31.80
2022-08-11T15:36:27.779Z,31.70
2022-08-11T15:38:59.726Z,31.50
2022-08-11T15:42:12.684Z,31.20
2022-08-11T15:45:03.732Z,31.20
2022-08-11T15:47:41.786Z,31.20
2022-08-11T15:50:15.250Z,31.10
2022-08-11T15:52:52.183Z,30.80
2022-08-11T15:55:20.005Z,30.60
2022-08-11T15:58:09.073Z,30.70
2022-08-11T16:00:59.096Z,30.70
2022-08-11T16:04:07.782Z,30.40
2022-08-11T16:06:55.868Z,30.10
2022-08-11T16:09:42.986Z,30.10
2022-08-11T16:12:29.119Z,30.00
2022-08-11T16:15:20.025Z,29.90
2022-08-11T16:17:53.566Z,29.60
2022-08-11T16:20:26.332Z,29.30
2022-08-11T16:23:02.505Z,29.20
2022-08-11T16:27:04.683Z,29.10
2022-08-11T16:28:22.108Z,29.00
2022-08-11T16:30:50.230Z,28.90
2022-08-11T16:33:50.636Z,28.70
2022-08-11T16:36:28.176Z,28.60
2022-08-11T16:38:56.921Z,28.40
2022-08-11T16:41:46.528Z,28.30
2022-08-11T16:44:37.699Z,28.00
2022-08-11T16:47:08.582Z,27.90
2022-08-11T16:49:39.228Z,27.80
2022-08-11T16:52:12.257Z,27.70
2022-08-11T16:54:44.420Z,27.50
2022-08-11T16:57:52.401Z,27.20
2022-08-11T17:00:19.506Z,27.00
2022-08-11T17:03:11.193Z,27.00
2022-08-11T17:06:03.820Z,26.90
2022-08-11T17:08:57.461Z,26.70
2022-08-11T17:11:47.952Z,26.60
2022-08-11T17:14:36.119Z,26.50
2022-08-11T17:17:13.700Z,26.40
2022-08-11T17:20:39.430Z,26.20
2022-08-11T17:22:57.570Z,26.10
2022-08-11T17:25:29.151Z,25.90
2022-08-11T17:27:57.150Z,25.90
2022-08-11T17:30:45.283Z,25.80
2022-08-11T17:33:32.140Z,25.80
2022-08-11T17:36:00.691Z,25.70
2022-08-11T17:38:28.755Z,25.60
2022-08-11T17:41:23.595Z,25.60
2022-08-11T17:44:11.726Z,25.50
2022-08-11T17:47:03.652Z,25.40
2022-08-11T17:49:37.773Z,25.30
2022-08-11T17:52:24.991Z,25.10
2022-08-11T17:55:13.519Z,25.00
2022-08-11T17:58:00.512Z,24.90
2022-08-11T18:00:27.912Z,24.80
2022-08-11T18:03:15.597Z,24.70
2022-08-11T18:05:44.552Z,24.60
2022-08-11T18:08:32.355Z,24.50
2022-08-11T18:12:00.053Z,24.40
2022-08-11T18:14:27.436Z,24.20
2022-08-11T18:17:13.067Z,24.10
2022-08-11T18:19:58.956Z,23.90
2022-08-11T18:22:50.072Z,23.70
2022-08-11T18:25:54.356Z,23.50
2022-08-11T18:28:45.941Z,23.30
2022-08-11T18:31:34.788Z,23.20
2022-08-11T18:34:29.514Z,23.10
2022-08-11T18:37:29.572Z,22.90
2022-08-11T18:40:24.615Z,22.70
2022-08-11T18:43:12.102Z,22.70
2022-08-11T18:46:06.445Z,22.60
2022-08-11T18:48:57.664Z,22.50
2022-08-11T18:51:45.173Z,22.30
2022-08-11T18:54:32.666Z,22.10
2022-08-11T18:57:22.416Z,21.90
2022-08-11T19:00:11.231Z,21.80
2022-08-11T19:02:59.176Z,21.70
2022-08-11T19:06:31.979Z,21.60
2022-08-11T19:09:00.220Z,21.40
2022-08-11T19:11:47.750Z,21.30
2022-08-11T19:14:37.155Z,21.20
2022-08-11T19:17:43.498Z,21.00
2022-08-11T19:20:34.809Z,21.00
2022-08-11T19:23:22.010Z,20.80
2022-08-11T19:26:08.551Z,20.70
2022-08-11T19:28:57.518Z,20.60
2022-08-11T19:31:45.226Z,20.50
2022-08-11T19:34:37.709Z,20.40
2022-08-11T19:37:25.825Z,20.30
2022-08-11T19:40:19.572Z,20.20
2022-08-11T19:43:11.079Z,20.20
2022-08-11T19:46:05.814Z,20.10
2022-08-11T19:48:52.105Z,20.00
2022-08-11T19:51:38.816Z,19.90
2022-08-11T19:54:25.221Z,19.90
2022-08-11T19:57:16.120Z,19.80
2022-08-11T20:00:02.769Z,19.80
2022-08-11T20:02:48.326Z,19.70
2022-08-11T20:05:33.913Z,19.60
2022-08-11T20:08:19.821Z,19.50
2022-08-11T20:11:07.301Z,19.40
2022-08-11T20:13:54.233Z,19.30
2022-08-11T20:16:42.215Z,19.20
2022-08-11T20:19:56.481Z,19.00
2022-08-11T20:22:36.946Z,18.90
2022-08-11T20:25:24.038Z,18.90
2022-08-11T20:28:11.370Z,18.90
2022-08-11T20:30:58.105Z,18.70
2022-08-11T20:33:44.599Z,18.60
2022-08-11T20:36:32.477Z,18.50
2022-08-11T20:39:19.332Z,18.50
2022-08-11T20:42:07.302Z,18.40
2022-08-11T20:44:55.431Z,18.50
2022-08-11T20:47:58.928Z,18.50
2022-08-11T20:50:46.902Z,18.50
2022-08-11T20:53:35.901Z,18.40
2022-08-11T20:56:28.811Z,18.30
2022-08-11T20:59:18.740Z,18.20
2022-08-11T21:02:10.082Z,18.00
2022-08-11T21:04:57.704Z,18.00
2022-08-11T21:07:56.945Z,18.00
2022-08-11T21:10:51.145Z,18.00
2022-08-11T21:13:40.556Z,17.90
2022-08-11T21:16:27.680Z,17.90
2022-08-11T21:20:00.453Z,17.90
2022-08-11T21:22:37.386Z,17.80
2022-08-11T21:25:25.983Z,17.60
2022-08-11T21:28:14.417Z,17.60
2022-08-11T21:31:01.217Z,17.50
2022-08-11T21:33:49.836Z,17.40
2022-08-11T21:36:37.647Z,17.40
2022-08-11T21:39:25.445Z,17.50
2022-08-11T21:42:13.143Z,17.50
2022-08-11T21:45:01.234Z,17.40
2022-08-11T21:47:48.557Z,17.40
2022-08-11T21:50:34.889Z,17.30
2022-08-11T21:53:21.070Z,17.30
2022-08-11T21:56:08.701Z,17.20
2022-08-11T21:58:55.207Z,17.20
2022-08-11T22:01:42.128Z,17.20
2022-08-11T22:04:28.698Z,17.20
2022-08-11T22:07:15.521Z,17.20
2022-08-11T22:10:01.113Z,17.00
2022-08-11T22:13:06.947Z,16.90
2022-08-11T22:15:52.679Z,16.90
2022-08-11T22:18:38.069Z,17.00
2022-08-11T22:22:01.765Z,17.00
2022-08-11T22:24:30.615Z,16.90
2022-08-11T22:27:16.283Z,16.90
2022-08-11T22:30:01.920Z,16.90
2022-08-11T22:32:48.495Z,16.90
2022-08-11T22:35:35.274Z,16.90
2022-08-11T22:38:22.119Z,17.00
2022-08-11T22:41:07.639Z,16.90
2022-08-11T22:43:53.409Z,16.90
2022-08-11T22:46:40.358Z,16.90
2022-08-11T22:49:27.719Z,16.80
2022-08-11T22:52:14.211Z,16.80
2022-08-11T22:55:05.112Z,16.80
2022-08-11T22:58:00.761Z,16.80
2022-08-11T23:00:47.407Z,16.80
2022-08-11T23:03:37.782Z,16.80
2022-08-11T23:06:25.542Z,16.80
2022-08-11T23:09:12.385Z,16.80
2022-08-11T23:12:07.959Z,16.60
2022-08-11T23:14:57.257Z,16.40
2022-08-11T23:17:43.451Z,16.20
2022-08-11T23:20:33.642Z,16.20
2022-08-11T23:23:21.561Z,16.30
2022-08-11T23:26:11.212Z,16.30
2022-08-11T23:28:59.175Z,16.30
2022-08-11T23:31:51.648Z,16.20
2022-08-11T23:35:03.514Z,16.20
2022-08-11T23:37:51.393Z,16.10
2022-08-11T23:40:37.380Z,16.10
2022-08-11T23:43:23.517Z,16.10
2022-08-11T23:46:09.293Z,16.00
2022-08-11T23:48:56.880Z,16.00
2022-08-11T23:51:43.600Z,16.00
2022-08-11T23:54:32.636Z,16.00
2022-08-11T23:57:22.701Z,15.90
